sensor_id;sensor_type;location;lat;lon;timestamp;P1;durP1;ratioP1;P2;durP2;ratioP2
4933;SDS011;2482;49.154;8.254;2023-01-15T00:02:20;2.00;;;0.73;;
4933;SDS011;2482;49.154;8.254;2023-01-15T00:04:49;3.10;;;0.80;;
4933;SDS011;2482;49.154;8.254;2023-01-15T00:07:16;0.70;;;0.70;;
4933;SDS011;2482;49.154;8.254;2023-01-15T00:09:43;0.83;;;0.60;;
4933;SDS011;2482;49.154;8.254;2023-01-15T00:12:10;1.60;;;0.80;;
4933;SDS011;2482;49.154;8.254;2023-01-15T00:14:37;2.60;;;0.90;;
4933;SDS011;2482;49.154;8.254;2023-01-15T00:17:04;1.37;;;0.70;;
4933;SDS011;2482;49.154;8.254;2023-01-15T00:19:31;1.10;;;0.70;;
4933;SDS011;2482;49.154;8.254;2023-01-15T00:21:58;0.70;;;0.70;;
4933;SDS011;2482;49.154;8.254;2023-01-15T00:24:25;1.07;;;0.70;;
4933;SDS011;2482;49.154;8.254;2023-01-15T00:27:11;1.73;;;0.80;;
4933;SDS011;2482;49.154;8.254;2023-01-15T00:29:57;1.17;;;0.83;;
4933;SDS011;2482;49.154;8.254;2023-01-15T00:32:24;0.87;;;0.63;;
4933;SDS011;2482;49.154;8.254;2023-01-15T00:34:53;0.80;;;0.73;;
4933;SDS011;2482;49.154;8.254;2023-01-15T00:37:20;1.67;;;0.90;;
4933;SDS011;2482;49.154;8.254;2023-01-15T00:39:47;0.90;;;0.73;;
4933;SDS011;2482;49.154;8.254;2023-01-15T00:42:14;0.80;;;0.80;;
4933;SDS011;2482;49.154;8.254;2023-01-15T00:44:43;1.70;;;0.50;;
4933;SDS011;2482;49.154;8.254;2023-01-15T00:47:09;0.70;;;0.63;;
4933;SDS011;2482;49.154;8.254;2023-01-15T00:49:40;0.60;;;0.60;;
4933;SDS011;2482;49.154;8.254;2023-01-15T00:52:08;0.80;;;0.70;;
4933;SDS011;2482;49.154;8.254;2023-01-15T00:54:36;0.80;;;0.60;;
4933;SDS011;2482;49.154;8.254;2023-01-15T00:57:04;0.77;;;0.60;;
4933;SDS011;2482;49.154;8.254;2023-01-15T00:59:31;0.70;;;0.60;;
4933;SDS011;2482;49.154;8.254;2023-01-15T01:01:58;1.33;;;0.60;;
4933;SDS011;2482;49.154;8.254;2023-01-15T01:04:25;0.70;;;0.70;;
4933;SDS011;2482;49.154;8.254;2023-01-15T01:06:52;1.50;;;0.60;;
4933;SDS011;2482;49.154;8.254;2023-01-15T01:09:19;1.37;;;0.80;;
4933;SDS011;2482;49.154;8.254;2023-01-15T01:11:47;0.67;;;0.67;;
4933;SDS011;2482;49.154;8.254;2023-01-15T01:14:15;1.27;;;0.77;;
4933;SDS011;2482;49.154;8.254;2023-01-15T01:16:42;0.73;;;0.60;;
4933;SDS011;2482;49.154;8.254;2023-01-15T01:19:11;0.77;;;0.77;;
4933;SDS011;2482;49.154;8.254;2023-01-15T01:21:44;1.00;;;0.90;;
4933;SDS011;2482;49.154;8.254;2023-01-15T01:24:13;0.60;;;0.60;;
4933;SDS011;2482;49.154;8.254;2023-01-15T01:26:46;0.63;;;0.57;;
4933;SDS011;2482;49.154;8.254;2023-01-15T01:29:15;0.50;;;0.50;;
4933;SDS011;2482;49.154;8.254;2023-01-15T01:31:45;0.60;;;0.60;;
4933;SDS011;2482;49.154;8.254;2023-01-15T01:34:12;0.60;;;0.60;;
4933;SDS011;2482;49.154;8.254;2023-01-15T01:36:41;0.60;;;0.60;;
4933;SDS011;2482;49.154;8.254;2023-01-15T01:39:11;0.60;;;0.60;;
4933;SDS011;2482;49.154;8.254;2023-01-15T01:41:43;0.60;;;0.60;;
4933;SDS011;2482;49.154;8.254;2023-01-15T01:47:04;0.70;;;0.60;;
4933;SDS011;2482;49.154;8.254;2023-01-15T01:49:36;0.53;;;0.53;;
4933;SDS011;2482;49.154;8.254;2023-01-15T01:52:07;0.60;;;0.60;;
4933;SDS011;2482;49.154;8.254;2023-01-15T01:54:39;0.93;;;0.80;;
4933;SDS011;2482;49.154;8.254;2023-01-15T01:57:07;1.17;;;0.70;;
4933;SDS011;2482;49.154;8.254;2023-01-15T01:59:35;1.07;;;0.60;;
4933;SDS011;2482;49.154;8.254;2023-01-15T02:02:03;0.60;;;0.60;;
4933;SDS011;2482;49.154;8.254;2023-01-15T02:04:31;0.87;;;0.60;;
4933;SDS011;2482;49.154;8.254;2023-01-15T02:06:59;0.70;;;0.50;;
4933;SDS011;2482;49.154;8.254;2023-01-15T02:09:27;0.80;;;0.60;;
4933;SDS011;2482;49.154;8.254;2023-01-15T02:11:56;1.83;;;0.50;;
4933;SDS011;2482;49.154;8.254;2023-01-15T02:14:36;0.93;;;0.60;;
4933;SDS011;2482;49.154;8.254;2023-01-15T02:17:23;0.93;;;0.70;;
4933;SDS011;2482;49.154;8.254;2023-01-15T02:22:49;1.60;;;0.50;;
4933;SDS011;2482;49.154;8.254;2023-01-15T02:28:44;1.00;;;0.50;;
4933;SDS011;2482;49.154;8.254;2023-01-15T02:31:29;1.43;;;0.70;;
4933;SDS011;2482;49.154;8.254;2023-01-15T02:34:04;1.57;;;0.70;;
4933;SDS011;2482;49.154;8.254;2023-01-15T02:36:43;1.90;;;0.50;;
4933;SDS011;2482;49.154;8.254;2023-01-15T02:39:15;0.70;;;0.60;;
4933;SDS011;2482;49.154;8.254;2023-01-15T02:41:46;1.10;;;0.70;;
4933;SDS011;2482;49.154;8.254;2023-01-15T02:44:17;0.53;;;0.53;;
4933;SDS011;2482;49.154;8.254;2023-01-15T02:46:47;0.60;;;0.60;;
4933;SDS011;2482;49.154;8.254;2023-01-15T02:49:16;0.60;;;0.60;;
4933;SDS011;2482;49.154;8.254;2023-01-15T02:52:20;0.50;;;0.50;;
4933;SDS011;2482;49.154;8.254;2023-01-15T02:54:51;0.70;;;0.60;;
4933;SDS011;2482;49.154;8.254;2023-01-15T02:57:26;0.53;;;0.53;;
4933;SDS011;2482;49.154;8.254;2023-01-15T02:59:56;0.60;;;0.53;;
4933;SDS011;2482;49.154;8.254;2023-01-15T03:02:32;0.60;;;0.60;;
4933;SDS011;2482;49.154;8.254;2023-01-15T03:05:40;0.60;;;0.60;;
4933;SDS011;2482;49.154;8.254;2023-01-15T03:08:16;0.70;;;0.50;;
4933;SDS011;2482;49.154;8.254;2023-01-15T03:13:24;0.50;;;0.50;;
4933;SDS011;2482;49.154;8.254;2023-01-15T03:16:34;2.07;;;0.80;;
4933;SDS011;2482;49.154;8.254;2023-01-15T03:24:53;0.87;;;0.60;;
4933;SDS011;2482;49.154;8.254;2023-01-15T03:27:26;0.50;;;0.50;;
4933;SDS011;2482;49.154;8.254;2023-01-15T03:29:57;0.40;;;0.40;;
4933;SDS011;2482;49.154;8.254;2023-01-15T03:32:31;0.50;;;0.50;;
4933;SDS011;2482;49.154;8.254;2023-01-15T03:34:59;1.10;;;0.53;;
4933;SDS011;2482;49.154;8.254;2023-01-15T03:37:29;1.23;;;0.47;;
4933;SDS011;2482;49.154;8.254;2023-01-15T03:39:58;0.40;;;0.40;;
4933;SDS011;2482;49.154;8.254;2023-01-15T03:42:33;0.40;;;0.40;;
4933;SDS011;2482;49.154;8.254;2023-01-15T03:45:46;0.50;;;0.50;;
4933;SDS011;2482;49.154;8.254;2023-01-15T03:51:03;0.50;;;0.50;;
4933;SDS011;2482;49.154;8.254;2023-01-15T03:53:49;0.40;;;0.40;;
4933;SDS011;2482;49.154;8.254;2023-01-15T03:56:32;0.40;;;0.40;;
4933;SDS011;2482;49.154;8.254;2023-01-15T03:59:14;0.50;;;0.50;;
4933;SDS011;2482;49.154;8.254;2023-01-15T04:01:48;0.50;;;0.50;;
4933;SDS011;2482;49.154;8.254;2023-01-15T04:04:19;0.50;;;0.50;;
4933;SDS011;2482;49.154;8.254;2023-01-15T04:06:48;0.50;;;0.50;;
4933;SDS011;2482;49.154;8.254;2023-01-15T04:09:15;0.40;;;0.40;;
4933;SDS011;2482;49.154;8.254;2023-01-15T04:11:42;0.40;;;0.40;;
4933;SDS011;2482;49.154;8.254;2023-01-15T04:14:11;1.43;;;0.50;;
4933;SDS011;2482;49.154;8.254;2023-01-15T04:16:40;0.40;;;0.40;;
4933;SDS011;2482;49.154;8.254;2023-01-15T04:19:07;2.10;;;0.50;;
4933;SDS011;2482;49.154;8.254;2023-01-15T04:21:34;0.40;;;0.40;;
4933;SDS011;2482;49.154;8.254;2023-01-15T04:24:01;0.40;;;0.40;;
4933;SDS011;2482;49.154;8.254;2023-01-15T04:26:28;0.40;;;0.40;;
4933;SDS011;2482;49.154;8.254;2023-01-15T04:28:55;0.50;;;0.50;;
4933;SDS011;2482;49.154;8.254;2023-01-15T04:31:25;0.50;;;0.50;;
4933;SDS011;2482;49.154;8.254;2023-01-15T04:33:53;0.50;;;0.50;;
4933;SDS011;2482;49.154;8.254;2023-01-15T04:36:20;1.13;;;0.50;;
4933;SDS011;2482;49.154;8.254;2023-01-15T04:38:47;0.50;;;0.50;;
4933;SDS011;2482;49.154;8.254;2023-01-15T04:41:13;0.50;;;0.50;;
4933;SDS011;2482;49.154;8.254;2023-01-15T04:44:01;1.00;;;0.50;;
4933;SDS011;2482;49.154;8.254;2023-01-15T04:46:52;0.50;;;0.50;;
4933;SDS011;2482;49.154;8.254;2023-01-15T04:49:21;0.57;;;0.50;;
4933;SDS011;2482;49.154;8.254;2023-01-15T04:51:48;0.43;;;0.43;;
4933;SDS011;2482;49.154;8.254;2023-01-15T04:54:16;0.47;;;0.47;;
4933;SDS011;2482;49.154;8.254;2023-01-15T04:56:48;0.40;;;0.40;;
4933;SDS011;2482;49.154;8.254;2023-01-15T04:59:19;0.60;;;0.50;;
4933;SDS011;2482;49.154;8.254;2023-01-15T05:01:50;0.40;;;0.40;;
4933;SDS011;2482;49.154;8.254;2023-01-15T05:04:30;0.40;;;0.40;;
4933;SDS011;2482;49.154;8.254;2023-01-15T05:06:59;0.97;;;0.50;;
4933;SDS011;2482;49.154;8.254;2023-01-15T05:09:28;0.40;;;0.40;;
4933;SDS011;2482;49.154;8.254;2023-01-15T05:11:57;0.40;;;0.40;;
4933;SDS011;2482;49.154;8.254;2023-01-15T05:14:24;0.50;;;0.50;;
4933;SDS011;2482;49.154;8.254;2023-01-15T05:16:51;0.50;;;0.50;;
4933;SDS011;2482;49.154;8.254;2023-01-15T05:19:18;0.50;;;0.50;;
4933;SDS011;2482;49.154;8.254;2023-01-15T05:21:44;1.17;;;0.50;;
4933;SDS011;2482;49.154;8.254;2023-01-15T05:24:12;0.40;;;0.40;;
4933;SDS011;2482;49.154;8.254;2023-01-15T05:26:43;1.43;;;0.40;;
4933;SDS011;2482;49.154;8.254;2023-01-15T05:29:11;0.40;;;0.40;;
4933;SDS011;2482;49.154;8.254;2023-01-15T05:31:39;0.50;;;0.50;;
4933;SDS011;2482;49.154;8.254;2023-01-15T05:34:08;0.50;;;0.50;;
4933;SDS011;2482;49.154;8.254;2023-01-15T05:36:36;0.50;;;0.50;;
4933;SDS011;2482;49.154;8.254;2023-01-15T05:39:03;0.50;;;0.50;;
4933;SDS011;2482;49.154;8.254;2023-01-15T05:41:30;0.50;;;0.50;;
4933;SDS011;2482;49.154;8.254;2023-01-15T05:44:17;1.13;;;0.57;;
4933;SDS011;2482;49.154;8.254;2023-01-15T05:46:48;0.47;;;0.40;;
4933;SDS011;2482;49.154;8.254;2023-01-15T05:49:18;0.50;;;0.50;;
4933;SDS011;2482;49.154;8.254;2023-01-15T05:51:49;0.40;;;0.40;;
4933;SDS011;2482;49.154;8.254;2023-01-15T05:54:21;0.50;;;0.50;;
4933;SDS011;2482;49.154;8.254;2023-01-15T05:56:51;0.57;;;0.50;;
4933;SDS011;2482;49.154;8.254;2023-01-15T05:59:19;0.40;;;0.40;;
4933;SDS011;2482;49.154;8.254;2023-01-15T06:01:48;0.50;;;0.50;;
4933;SDS011;2482;49.154;8.254;2023-01-15T06:04:16;0.50;;;0.50;;
4933;SDS011;2482;49.154;8.254;2023-01-15T06:06:47;0.97;;;0.50;;
4933;SDS011;2482;49.154;8.254;2023-01-15T06:09:15;4.33;;;0.50;;
4933;SDS011;2482;49.154;8.254;2023-01-15T06:11:44;0.40;;;0.40;;
4933;SDS011;2482;49.154;8.254;2023-01-15T06:14:12;2.10;;;0.50;;
4933;SDS011;2482;49.154;8.254;2023-01-15T06:16:40;0.40;;;0.40;;
4933;SDS011;2482;49.154;8.254;2023-01-15T06:19:08;1.53;;;0.50;;
4933;SDS011;2482;49.154;8.254;2023-01-15T06:21:37;1.63;;;0.60;;
4933;SDS011;2482;49.154;8.254;2023-01-15T06:24:04;0.70;;;0.60;;
4933;SDS011;2482;49.154;8.254;2023-01-15T06:26:32;0.50;;;0.50;;
4933;SDS011;2482;49.154;8.254;2023-01-15T06:28:59;0.50;;;0.50;;
4933;SDS011;2482;49.154;8.254;2023-01-15T06:31:26;1.13;;;0.50;;
4933;SDS011;2482;49.154;8.254;2023-01-15T06:33:54;0.50;;;0.50;;
4933;SDS011;2482;49.154;8.254;2023-01-15T06:36:22;0.50;;;0.50;;
4933;SDS011;2482;49.154;8.254;2023-01-15T06:38:52;0.63;;;0.50;;
4933;SDS011;2482;49.154;8.254;2023-01-15T06:41:20;0.60;;;0.50;;
4933;SDS011;2482;49.154;8.254;2023-01-15T06:44:10;0.60;;;0.60;;
4933;SDS011;2482;49.154;8.254;2023-01-15T06:47:01;0.50;;;0.50;;
4933;SDS011;2482;49.154;8.254;2023-01-15T06:49:54;0.50;;;0.50;;
4933;SDS011;2482;49.154;8.254;2023-01-15T06:52:23;2.90;;;0.60;;
4933;SDS011;2482;49.154;8.254;2023-01-15T06:54:52;0.50;;;0.50;;
4933;SDS011;2482;49.154;8.254;2023-01-15T06:57:20;0.60;;;0.50;;
4933;SDS011;2482;49.154;8.254;2023-01-15T06:59:47;0.50;;;0.50;;
4933;SDS011;2482;49.154;8.254;2023-01-15T07:02:15;0.50;;;0.50;;
4933;SDS011;2482;49.154;8.254;2023-01-15T07:04:43;0.50;;;0.50;;
4933;SDS011;2482;49.154;8.254;2023-01-15T07:07:11;1.13;;;0.60;;
4933;SDS011;2482;49.154;8.254;2023-01-15T07:09:40;0.50;;;0.50;;
4933;SDS011;2482;49.154;8.254;2023-01-15T07:12:07;0.40;;;0.40;;
4933;SDS011;2482;49.154;8.254;2023-01-15T07:14:34;0.50;;;0.50;;
4933;SDS011;2482;49.154;8.254;2023-01-15T07:17:01;0.60;;;0.60;;
4933;SDS011;2482;49.154;8.254;2023-01-15T07:19:28;0.60;;;0.60;;
4933;SDS011;2482;49.154;8.254;2023-01-15T07:21:56;0.40;;;0.40;;
4933;SDS011;2482;49.154;8.254;2023-01-15T07:24:23;0.60;;;0.60;;
4933;SDS011;2482;49.154;8.254;2023-01-15T07:26:51;0.50;;;0.50;;
4933;SDS011;2482;49.154;8.254;2023-01-15T07:29:19;0.50;;;0.50;;
4933;SDS011;2482;49.154;8.254;2023-01-15T07:31:46;0.70;;;0.40;;
4933;SDS011;2482;49.154;8.254;2023-01-15T07:34:14;0.40;;;0.40;;
4933;SDS011;2482;49.154;8.254;2023-01-15T07:36:42;0.60;;;0.50;;
4933;SDS011;2482;49.154;8.254;2023-01-15T07:39:10;0.50;;;0.50;;
4933;SDS011;2482;49.154;8.254;2023-01-15T07:41:37;0.50;;;0.50;;
4933;SDS011;2482;49.154;8.254;2023-01-15T07:44:23;0.50;;;0.50;;
4933;SDS011;2482;49.154;8.254;2023-01-15T07:50:04;1.33;;;0.50;;
4933;SDS011;2482;49.154;8.254;2023-01-15T07:52:37;0.80;;;0.50;;
4933;SDS011;2482;49.154;8.254;2023-01-15T07:55:04;0.50;;;0.50;;
4933;SDS011;2482;49.154;8.254;2023-01-15T07:57:33;0.80;;;0.50;;
4933;SDS011;2482;49.154;8.254;2023-01-15T08:00:02;0.60;;;0.60;;
4933;SDS011;2482;49.154;8.254;2023-01-15T08:02:31;1.43;;;0.50;;
4933;SDS011;2482;49.154;8.254;2023-01-15T08:04:58;0.50;;;0.50;;
4933;SDS011;2482;49.154;8.254;2023-01-15T08:07:25;0.50;;;0.50;;
4933;SDS011;2482;49.154;8.254;2023-01-15T08:09:53;0.50;;;0.50;;
4933;SDS011;2482;49.154;8.254;2023-01-15T08:12:20;0.50;;;0.50;;
4933;SDS011;2482;49.154;8.254;2023-01-15T08:15:05;0.50;;;0.50;;
4933;SDS011;2482;49.154;8.254;2023-01-15T08:17:46;0.60;;;0.60;;
4933;SDS011;2482;49.154;8.254;2023-01-15T08:20:19;0.50;;;0.50;;
4933;SDS011;2482;49.154;8.254;2023-01-15T08:22:51;0.50;;;0.50;;
4933;SDS011;2482;49.154;8.254;2023-01-15T08:25:20;0.63;;;0.60;;
4933;SDS011;2482;49.154;8.254;2023-01-15T08:27:51;0.60;;;0.60;;
4933;SDS011;2482;49.154;8.254;2023-01-15T08:30:20;0.60;;;0.60;;
4933;SDS011;2482;49.154;8.254;2023-01-15T08:32:51;1.00;;;0.50;;
4933;SDS011;2482;49.154;8.254;2023-01-15T08:35:18;1.10;;;1.00;;
4933;SDS011;2482;49.154;8.254;2023-01-15T08:37:45;0.90;;;0.80;;
4933;SDS011;2482;49.154;8.254;2023-01-15T08:40:12;0.93;;;0.80;;
4933;SDS011;2482;49.154;8.254;2023-01-15T08:42:40;0.97;;;0.80;;
4933;SDS011;2482;49.154;8.254;2023-01-15T08:45:08;1.10;;;0.93;;
4933;SDS011;2482;49.154;8.254;2023-01-15T08:47:36;1.63;;;0.70;;
4933;SDS011;2482;49.154;8.254;2023-01-15T08:50:05;0.70;;;0.70;;
4933;SDS011;2482;49.154;8.254;2023-01-15T08:52:34;0.80;;;0.60;;
4933;SDS011;2482;49.154;8.254;2023-01-15T08:55:01;0.77;;;0.77;;
4933;SDS011;2482;49.154;8.254;2023-01-15T08:57:28;0.70;;;0.70;;
4933;SDS011;2482;49.154;8.254;2023-01-15T08:59:55;0.93;;;0.70;;
4933;SDS011;2482;49.154;8.254;2023-01-15T09:02:22;0.90;;;0.70;;
4933;SDS011;2482;49.154;8.254;2023-01-15T09:04:49;0.60;;;0.60;;
4933;SDS011;2482;49.154;8.254;2023-01-15T09:07:17;0.70;;;0.70;;
4933;SDS011;2482;49.154;8.254;2023-01-15T09:09:44;1.17;;;0.73;;
4933;SDS011;2482;49.154;8.254;2023-01-15T09:12:11;1.87;;;0.83;;
4933;SDS011;2482;49.154;8.254;2023-01-15T09:14:39;0.70;;;0.70;;
4933;SDS011;2482;49.154;8.254;2023-01-15T09:17:26;1.27;;;0.60;;
4933;SDS011;2482;49.154;8.254;2023-01-15T09:19:53;0.70;;;0.70;;
4933;SDS011;2482;49.154;8.254;2023-01-15T09:22:20;0.60;;;0.60;;
4933;SDS011;2482;49.154;8.254;2023-01-15T09:24:47;0.70;;;0.57;;
4933;SDS011;2482;49.154;8.254;2023-01-15T09:27:14;0.60;;;0.60;;
4933;SDS011;2482;49.154;8.254;2023-01-15T09:29:41;1.47;;;0.70;;
4933;SDS011;2482;49.154;8.254;2023-01-15T09:32:08;0.80;;;0.60;;
4933;SDS011;2482;49.154;8.254;2023-01-15T09:34:35;0.83;;;0.60;;
4933;SDS011;2482;49.154;8.254;2023-01-15T09:37:02;0.90;;;0.70;;
4933;SDS011;2482;49.154;8.254;2023-01-15T09:39:29;0.70;;;0.70;;
4933;SDS011;2482;49.154;8.254;2023-01-15T09:45:13;0.73;;;0.70;;
4933;SDS011;2482;49.154;8.254;2023-01-15T09:47:58;1.37;;;0.80;;
4933;SDS011;2482;49.154;8.254;2023-01-15T09:50:47;0.90;;;0.90;;
4933;SDS011;2482;49.154;8.254;2023-01-15T09:53:44;1.40;;;0.90;;
4933;SDS011;2482;49.154;8.254;2023-01-15T09:56:27;1.80;;;1.27;;
4933;SDS011;2482;49.154;8.254;2023-01-15T09:58:58;6.13;;;4.23;;
4933;SDS011;2482;49.154;8.254;2023-01-15T10:01:31;10.60;;;6.23;;
4933;SDS011;2482;49.154;8.254;2023-01-15T10:07:10;1.23;;;0.63;;
4933;SDS011;2482;49.154;8.254;2023-01-15T10:09:43;4.73;;;3.10;;
4933;SDS011;2482;49.154;8.254;2023-01-15T10:12:19;7.60;;;6.90;;
4933;SDS011;2482;49.154;8.254;2023-01-15T10:20:13;3.90;;;3.60;;
4933;SDS011;2482;49.154;8.254;2023-01-15T10:25:53;0.90;;;0.90;;
4933;SDS011;2482;49.154;8.254;2023-01-15T10:28:39;1.20;;;0.80;;
4933;SDS011;2482;49.154;8.254;2023-01-15T10:37:29;0.50;;;0.50;;
4933;SDS011;2482;49.154;8.254;2023-01-15T10:43:28;0.63;;;0.63;;
4933;SDS011;2482;49.154;8.254;2023-01-15T10:46:23;1.90;;;0.77;;
4933;SDS011;2482;49.154;8.254;2023-01-15T10:49:04;3.63;;;1.10;;
4933;SDS011;2482;49.154;8.254;2023-01-15T10:54:19;1.90;;;0.80;;
4933;SDS011;2482;49.154;8.254;2023-01-15T10:57:08;0.70;;;0.70;;
4933;SDS011;2482;49.154;8.254;2023-01-15T10:59:45;1.53;;;1.10;;
4933;SDS011;2482;49.154;8.254;2023-01-15T11:02:26;0.80;;;0.73;;
4933;SDS011;2482;49.154;8.254;2023-01-15T11:05:03;3.20;;;1.03;;
4933;SDS011;2482;49.154;8.254;2023-01-15T11:07:41;2.27;;;0.90;;
4933;SDS011;2482;49.154;8.254;2023-01-15T11:10:31;3.57;;;0.60;;
4933;SDS011;2482;49.154;8.254;2023-01-15T11:16:20;0.97;;;0.90;;
4933;SDS011;2482;49.154;8.254;2023-01-15T11:19:24;2.13;;;1.20;;
4933;SDS011;2482;49.154;8.254;2023-01-15T11:22:13;1.10;;;0.80;;
4933;SDS011;2482;49.154;8.254;2023-01-15T11:27:18;0.70;;;0.70;;
4933;SDS011;2482;49.154;8.254;2023-01-15T11:29:54;0.73;;;0.60;;
4933;SDS011;2482;49.154;8.254;2023-01-15T11:32:30;1.20;;;0.70;;
4933;SDS011;2482;49.154;8.254;2023-01-15T11:37:44;1.80;;;0.90;;
4933;SDS011;2482;49.154;8.254;2023-01-15T11:40:18;0.60;;;0.60;;
4933;SDS011;2482;49.154;8.254;2023-01-15T11:42:51;0.73;;;0.73;;
4933;SDS011;2482;49.154;8.254;2023-01-15T11:45:46;1.67;;;0.70;;
4933;SDS011;2482;49.154;8.254;2023-01-15T11:48:44;0.60;;;0.60;;
4933;SDS011;2482;49.154;8.254;2023-01-15T11:51:39;1.50;;;0.80;;
4933;SDS011;2482;49.154;8.254;2023-01-15T11:54:12;0.93;;;0.93;;
4933;SDS011;2482;49.154;8.254;2023-01-15T11:56:42;1.43;;;0.80;;
4933;SDS011;2482;49.154;8.254;2023-01-15T11:59:11;1.07;;;0.60;;
4933;SDS011;2482;49.154;8.254;2023-01-15T12:01:50;1.90;;;1.03;;
4933;SDS011;2482;49.154;8.254;2023-01-15T12:04:43;3.10;;;0.80;;
4933;SDS011;2482;49.154;8.254;2023-01-15T12:07:20;1.37;;;0.80;;
4933;SDS011;2482;49.154;8.254;2023-01-15T12:18:53;1.30;;;0.90;;
4933;SDS011;2482;49.154;8.254;2023-01-15T12:21:43;2.87;;;0.83;;
4933;SDS011;2482;49.154;8.254;2023-01-15T12:29:50;1.03;;;0.93;;
4933;SDS011;2482;49.154;8.254;2023-01-15T12:32:28;2.00;;;0.90;;
4933;SDS011;2482;49.154;8.254;2023-01-15T12:35:05;1.93;;;1.00;;
4933;SDS011;2482;49.154;8.254;2023-01-15T12:37:47;2.37;;;0.90;;
4933;SDS011;2482;49.154;8.254;2023-01-15T12:40:21;4.40;;;1.00;;
4933;SDS011;2482;49.154;8.254;2023-01-15T12:42:55;3.50;;;0.90;;
4933;SDS011;2482;49.154;8.254;2023-01-15T12:45:42;4.37;;;1.47;;
4933;SDS011;2482;49.154;8.254;2023-01-15T12:48:17;3.67;;;1.10;;
4933;SDS011;2482;49.154;8.254;2023-01-15T12:51:03;2.63;;;1.10;;
4933;SDS011;2482;49.154;8.254;2023-01-15T12:58:53;2.30;;;0.90;;
4933;SDS011;2482;49.154;8.254;2023-01-15T13:04:51;1.10;;;0.90;;
4933;SDS011;2482;49.154;8.254;2023-01-15T13:07:42;3.20;;;1.20;;
4933;SDS011;2482;49.154;8.254;2023-01-15T13:10:37;2.73;;;1.20;;
4933;SDS011;2482;49.154;8.254;2023-01-15T13:13:20;2.67;;;1.17;;
4933;SDS011;2482;49.154;8.254;2023-01-15T13:18:31;2.43;;;1.20;;
4933;SDS011;2482;49.154;8.254;2023-01-15T13:21:36;4.53;;;1.07;;
4933;SDS011;2482;49.154;8.254;2023-01-15T13:35:47;3.57;;;1.43;;
4933;SDS011;2482;49.154;8.254;2023-01-15T13:38:21;3.00;;;1.17;;
4933;SDS011;2482;49.154;8.254;2023-01-15T13:40:53;1.40;;;0.97;;
4933;SDS011;2482;49.154;8.254;2023-01-15T13:43:33;2.60;;;1.20;;
4933;SDS011;2482;49.154;8.254;2023-01-15T13:46:05;3.23;;;1.50;;
4933;SDS011;2482;49.154;8.254;2023-01-15T13:53:52;6.77;;;1.50;;
4933;SDS011;2482;49.154;8.254;2023-01-15T13:56:26;1.70;;;0.90;;
4933;SDS011;2482;49.154;8.254;2023-01-15T13:58:57;2.97;;;1.00;;
4933;SDS011;2482;49.154;8.254;2023-01-15T14:06:44;3.50;;;1.10;;
4933;SDS011;2482;49.154;8.254;2023-01-15T14:20:29;4.10;;;1.10;;
4933;SDS011;2482;49.154;8.254;2023-01-15T14:23:18;6.77;;;1.33;;
4933;SDS011;2482;49.154;8.254;2023-01-15T14:34:57;3.00;;;1.40;;
4933;SDS011;2482;49.154;8.254;2023-01-15T14:37:36;1.80;;;1.30;;
4933;SDS011;2482;49.154;8.254;2023-01-15T14:40:18;2.00;;;1.30;;
4933;SDS011;2482;49.154;8.254;2023-01-15T14:42:48;2.20;;;0.80;;
4933;SDS011;2482;49.154;8.254;2023-01-15T14:48:03;1.27;;;0.90;;
4933;SDS011;2482;49.154;8.254;2023-01-15T14:50:54;1.20;;;0.80;;
4933;SDS011;2482;49.154;8.254;2023-01-15T14:53:42;3.80;;;0.80;;
4933;SDS011;2482;49.154;8.254;2023-01-15T14:56:24;2.30;;;0.90;;
4933;SDS011;2482;49.154;8.254;2023-01-15T14:59:01;2.40;;;0.80;;
4933;SDS011;2482;49.154;8.254;2023-01-15T15:07:11;2.27;;;0.90;;
4933;SDS011;2482;49.154;8.254;2023-01-15T15:15:44;1.03;;;0.90;;
4933;SDS011;2482;49.154;8.254;2023-01-15T15:18:40;2.93;;;0.93;;
4933;SDS011;2482;49.154;8.254;2023-01-15T15:21:24;2.60;;;1.27;;
4933;SDS011;2482;49.154;8.254;2023-01-15T15:24:17;1.57;;;1.03;;
4933;SDS011;2482;49.154;8.254;2023-01-15T15:26:51;2.43;;;1.10;;
4933;SDS011;2482;49.154;8.254;2023-01-15T15:29:18;2.50;;;1.07;;
4933;SDS011;2482;49.154;8.254;2023-01-15T15:31:48;1.97;;;0.90;;
4933;SDS011;2482;49.154;8.254;2023-01-15T15:34:26;2.30;;;1.40;;
4933;SDS011;2482;49.154;8.254;2023-01-15T15:37:03;1.73;;;0.90;;
4933;SDS011;2482;49.154;8.254;2023-01-15T15:42:40;2.43;;;0.97;;
4933;SDS011;2482;49.154;8.254;2023-01-15T15:45:56;2.20;;;1.00;;
4933;SDS011;2482;49.154;8.254;2023-01-15T15:48:42;2.53;;;1.20;;
4933;SDS011;2482;49.154;8.254;2023-01-15T15:51:32;3.37;;;1.30;;
4933;SDS011;2482;49.154;8.254;2023-01-15T15:54:19;4.93;;;2.93;;
4933;SDS011;2482;49.154;8.254;2023-01-15T15:59:46;1.73;;;1.30;;
4933;SDS011;2482;49.154;8.254;2023-01-15T16:02:31;3.17;;;1.40;;
4933;SDS011;2482;49.154;8.254;2023-01-15T16:05:18;5.43;;;1.03;;
4933;SDS011;2482;49.154;8.254;2023-01-15T16:07:47;2.13;;;0.97;;
4933;SDS011;2482;49.154;8.254;2023-01-15T16:10:28;4.17;;;1.27;;
4933;SDS011;2482;49.154;8.254;2023-01-15T16:12:58;3.70;;;1.03;;
4933;SDS011;2482;49.154;8.254;2023-01-15T16:15:30;2.60;;;1.40;;
4933;SDS011;2482;49.154;8.254;2023-01-15T16:18:01;3.03;;;1.00;;
4933;SDS011;2482;49.154;8.254;2023-01-15T16:20:30;3.43;;;1.23;;
4933;SDS011;2482;49.154;8.254;2023-01-15T16:25:35;2.70;;;0.90;;
4933;SDS011;2482;49.154;8.254;2023-01-15T16:28:05;2.17;;;1.17;;
4933;SDS011;2482;49.154;8.254;2023-01-15T16:30:53;3.87;;;1.30;;
4933;SDS011;2482;49.154;8.254;2023-01-15T16:33:22;4.20;;;1.43;;
4933;SDS011;2482;49.154;8.254;2023-01-15T16:35:56;2.03;;;1.10;;
4933;SDS011;2482;49.154;8.254;2023-01-15T16:38:25;2.53;;;1.60;;
4933;SDS011;2482;49.154;8.254;2023-01-15T16:40:52;3.40;;;1.03;;
4933;SDS011;2482;49.154;8.254;2023-01-15T16:43:23;2.33;;;1.30;;
4933;SDS011;2482;49.154;8.254;2023-01-15T16:53:52;3.70;;;1.47;;
4933;SDS011;2482;49.154;8.254;2023-01-15T16:56:53;2.03;;;0.97;;
4933;SDS011;2482;49.154;8.254;2023-01-15T17:02:02;2.90;;;1.13;;
4933;SDS011;2482;49.154;8.254;2023-01-15T17:04:45;2.00;;;1.00;;
4933;SDS011;2482;49.154;8.254;2023-01-15T17:09:47;3.33;;;1.20;;
4933;SDS011;2482;49.154;8.254;2023-01-15T17:12:33;2.53;;;1.27;;
4933;SDS011;2482;49.154;8.254;2023-01-15T17:17:41;2.00;;;0.80;;
4933;SDS011;2482;49.154;8.254;2023-01-15T17:20:14;1.60;;;1.50;;
4933;SDS011;2482;49.154;8.254;2023-01-15T17:22:45;4.10;;;1.07;;
4933;SDS011;2482;49.154;8.254;2023-01-15T17:27:58;1.63;;;1.10;;
4933;SDS011;2482;49.154;8.254;2023-01-15T17:30:28;2.00;;;0.80;;
4933;SDS011;2482;49.154;8.254;2023-01-15T17:32:57;1.07;;;0.70;;
4933;SDS011;2482;49.154;8.254;2023-01-15T17:35:27;2.00;;;1.47;;
4933;SDS011;2482;49.154;8.254;2023-01-15T17:38:03;3.07;;;1.00;;
4933;SDS011;2482;49.154;8.254;2023-01-15T17:40:32;1.80;;;0.80;;
4933;SDS011;2482;49.154;8.254;2023-01-15T17:42:59;1.70;;;0.90;;
4933;SDS011;2482;49.154;8.254;2023-01-15T17:45:28;1.73;;;1.00;;
4933;SDS011;2482;49.154;8.254;2023-01-15T17:47:57;1.10;;;0.90;;
4933;SDS011;2482;49.154;8.254;2023-01-15T17:50:26;1.40;;;1.10;;
4933;SDS011;2482;49.154;8.254;2023-01-15T17:52:54;1.97;;;1.20;;
4933;SDS011;2482;49.154;8.254;2023-01-15T17:55:22;2.40;;;1.27;;
4933;SDS011;2482;49.154;8.254;2023-01-15T17:58:08;2.87;;;0.83;;
4933;SDS011;2482;49.154;8.254;2023-01-15T18:00:56;1.87;;;1.00;;
4933;SDS011;2482;49.154;8.254;2023-01-15T18:03:46;2.30;;;0.90;;
4933;SDS011;2482;49.154;8.254;2023-01-15T18:06:34;3.53;;;1.10;;
4933;SDS011;2482;49.154;8.254;2023-01-15T18:09:03;4.27;;;1.27;;
4933;SDS011;2482;49.154;8.254;2023-01-15T18:11:32;3.23;;;1.10;;
4933;SDS011;2482;49.154;8.254;2023-01-15T18:13:59;1.20;;;1.10;;
4933;SDS011;2482;49.154;8.254;2023-01-15T18:16:26;5.43;;;1.10;;
4933;SDS011;2482;49.154;8.254;2023-01-15T18:18:54;2.00;;;0.90;;
4933;SDS011;2482;49.154;8.254;2023-01-15T18:21:21;3.30;;;1.20;;
4933;SDS011;2482;49.154;8.254;2023-01-15T18:23:48;0.90;;;0.70;;
4933;SDS011;2482;49.154;8.254;2023-01-15T18:26:15;2.40;;;0.90;;
4933;SDS011;2482;49.154;8.254;2023-01-15T18:28:42;4.33;;;1.47;;
4933;SDS011;2482;49.154;8.254;2023-01-15T18:31:11;4.43;;;1.40;;
4933;SDS011;2482;49.154;8.254;2023-01-15T18:33:38;2.20;;;1.10;;
4933;SDS011;2482;49.154;8.254;2023-01-15T18:36:06;1.33;;;1.00;;
4933;SDS011;2482;49.154;8.254;2023-01-15T18:38:37;2.50;;;1.17;;
4933;SDS011;2482;49.154;8.254;2023-01-15T18:41:09;2.50;;;1.10;;
4933;SDS011;2482;49.154;8.254;2023-01-15T18:44:18;3.43;;;1.30;;